createdAt,value
2022-08-20T00:01:10.443Z,72.72
2022-08-20T00:03:40.384Z,72.73
2022-08-20T00:06:18.619Z,72.80
2022-08-20T00:08:46.658Z,72.97
2022-08-20T00:11:18.441Z,72.94
2022-08-20T00:13:52.609Z,72.92
2022-08-20T00:16:23.212Z,73.06
2022-08-20T00:18:51.221Z,73.25
2022-08-20T00:21:20.057Z,73.14
2022-08-20T00:23:49.360Z,73.27
2022-08-20T00:26:17.062Z,73.18
2022-08-20T00:28:43.840Z,73.07
2022-08-20T00:31:18.258Z,73.38
2022-08-20T00:33:45.769Z,73.20
2022-08-20T00:36:15.746Z,73.34
2022-08-20T00:38:44.660Z,73.27
2022-08-20T00:41:14.899Z,73.24
2022-08-20T00:43:51.236Z,73.51
2022-08-20T00:46:31.028Z,73.62
2022-08-20T00:49:00.040Z,73.57
2022-08-20T00:51:35.078Z,73.92
2022-08-20T00:54:11.302Z,74.06
2022-08-20T00:56:39.110Z,74.15
2022-08-20T00:59:12.743Z,74.32
2022-08-20T01:01:55.058Z,74.32
2022-08-20T01:04:25.305Z,74.30
2022-08-20T01:06:52.300Z,74.39
2022-08-20T01:09:49.803Z,74.58
2022-08-20T01:12:08.168Z,74.38
2022-08-20T01:14:34.954Z,74.55
2022-08-20T01:17:07.893Z,74.51
2022-08-20T01:19:49.447Z,74.69
2022-08-20T01:22:43.978Z,74.69
2022-08-20T01:25:20.482Z,74.92
2022-08-20T01:27:55.167Z,74.77
2022-08-20T01:30:27.823Z,74.67
2022-08-20T01:32:55.143Z,74.93
2022-08-20T01:35:24.441Z,74.85
2022-08-20T01:37:51.253Z,74.88
2022-08-20T01:40:42.069Z,74.99
2022-08-20T01:43:09.731Z,74.90
2022-08-20T01:45:37.129Z,74.72
2022-08-20T01:48:07.004Z,74.70
2022-08-20T01:50:37.067Z,74.66
2022-08-20T01:53:17.075Z,74.68
2022-08-20T01:55:44.246Z,74.82
2022-08-20T01:58:11.234Z,74.64
2022-08-20T02:00:38.217Z,74.97
2022-08-20T02:03:05.246Z,74.66
2022-08-20T02:05:33.553Z,74.80
2022-08-20T02:08:02.185Z,74.73
2022-08-20T02:10:31.895Z,74.80
2022-08-20T02:13:00.375Z,74.76
2022-08-20T02:15:34.760Z,74.88
2022-08-20T02:18:08.121Z,74.84
2022-08-20T02:20:36.163Z,74.88
2022-08-20T02:23:04.134Z,74.79
2022-08-20T02:25:33.832Z,75.08
2022-08-20T02:28:06.896Z,74.95
2022-08-20T02:30:38.249Z,74.95
2022-08-20T02:33:07.995Z,75.06
2022-08-20T02:35:35.558Z,74.98
2022-08-20T02:38:04.955Z,74.95
2022-08-20T02:40:33.264Z,75.00
2022-08-20T02:43:01.912Z,75.02
2022-08-20T02:45:30.834Z,75.03
2022-08-20T02:47:59.160Z,75.17
2022-08-20T02:50:26.626Z,75.16
2022-08-20T02:52:53.705Z,75.15
2022-08-20T02:55:27.497Z,75.22
2022-08-20T02:57:58.605Z,75.45
2022-08-20T03:02:54.241Z,75.53
2022-08-20T03:05:21.183Z,75.89
2022-08-20T03:07:51.680Z,76.17
2022-08-20T03:10:18.572Z,76.05
2022-08-20T03:12:46.584Z,76.28
2022-08-20T03:15:17.478Z,76.21
2022-08-20T03:17:45.614Z,76.36
2022-08-20T03:20:14.354Z,76.27
2022-08-20T03:22:41.105Z,76.18
2022-08-20T03:25:08.260Z,76.29
2022-08-20T03:27:36.429Z,76.04
2022-08-20T03:30:06.340Z,76.17
2022-08-20T03:32:37.701Z,76.09
2022-08-20T03:35:06.700Z,75.99
2022-08-20T03:37:35.256Z,75.94
2022-08-20T03:40:04.615Z,75.96
2022-08-20T03:42:32.942Z,75.91
2022-08-20T03:45:00.944Z,75.86
2022-08-20T03:47:28.101Z,75.92
2022-08-20T03:50:02.229Z,75.97
2022-08-20T03:52:29.542Z,75.83
2022-08-20T03:54:57.115Z,75.72
2022-08-20T03:57:24.635Z,75.69
2022-08-20T03:59:54.896Z,75.74
2022-08-20T04:02:28.276Z,75.69
2022-08-20T04:04:55.294Z,75.75
2022-08-20T04:07:25.990Z,75.66
2022-08-20T04:09:55.006Z,75.53
2022-08-20T04:12:24.349Z,75.66
2022-08-20T04:14:52.208Z,75.50
2022-08-20T04:17:20.192Z,75.51
2022-08-20T04:19:48.371Z,75.39
2022-08-20T04:22:16.437Z,75.38
2022-08-20T04:24:43.497Z,75.38
2022-08-20T04:27:11.069Z,75.39
2022-08-20T04:29:43.205Z,75.64
2022-08-20T04:32:10.084Z,75.55
2022-08-20T04:34:37.065Z,75.39
2022-08-20T04:37:04.513Z,75.45
2022-08-20T04:39:31.532Z,75.60
2022-08-20T04:41:58.448Z,75.47
2022-08-20T04:44:25.251Z,75.33
2022-08-20T04:46:51.985Z,75.43
2022-08-20T04:49:20.713Z,75.52
2022-08-20T04:51:48.491Z,75.43
2022-08-20T04:54:15.211Z,75.39
2022-08-20T04:56:42.037Z,75.46
2022-08-20T04:59:08.796Z,75.35
2022-08-20T05:01:35.857Z,75.45
2022-08-20T05:04:02.985Z,75.42
2022-08-20T05:06:31.933Z,75.65
2022-08-20T05:09:00.678Z,75.63
2022-08-20T05:11:33.182Z,75.65
2022-08-20T05:14:02.526Z,75.56
2022-08-20T05:16:29.706Z,75.80
2022-08-20T05:18:56.441Z,75.80
2022-08-20T05:21:23.281Z,75.62
2022-08-20T05:23:50.033Z,75.74
2022-08-20T05:26:18.771Z,75.68
2022-08-20T05:28:54.076Z,75.92
2022-08-20T05:31:32.115Z,75.85
2022-08-20T05:34:18.096Z,75.91
2022-08-20T05:36:49.159Z,75.85
2022-08-20T05:39:17.210Z,76.09
2022-08-20T05:41:43.947Z,76.05
2022-08-20T05:44:13.504Z,75.91
2022-08-20T05:46:42.012Z,76.01
2022-08-20T05:49:10.711Z,75.86
2022-08-20T05:51:38.050Z,76.14
2022-08-20T05:54:06.081Z,75.93
2022-08-20T05:56:34.016Z,75.88
2022-08-20T05:59:04.888Z,76.00
2022-08-20T06:01:33.909Z,75.74
2022-08-20T06:04:20.178Z,76.05
2022-08-20T06:06:47.744Z,75.92
2022-08-20T06:09:30.753Z,75.82
2022-08-20T06:12:03.888Z,75.82
2022-08-20T06:14:32.052Z,75.83
2022-08-20T06:17:06.748Z,75.78
2022-08-20T06:19:35.435Z,75.82
2022-08-20T06:22:08.679Z,75.75
2022-08-20T06:24:44.835Z,75.87
2022-08-20T06:27:15.284Z,75.82
2022-08-20T06:29:42.303Z,75.78
2022-08-20T06:32:09.755Z,75.55
2022-08-20T06:34:36.823Z,75.56
2022-08-20T06:37:14.802Z,75.49
2022-08-20T06:39:41.895Z,75.50
2022-08-20T06:42:08.732Z,75.41
2022-08-20T06:44:36.977Z,75.27
2022-08-20T06:47:05.130Z,75.21
2022-08-20T06:49:36.069Z,75.13
2022-08-20T06:52:05.188Z,75.13
2022-08-20T06:54:34.370Z,74.86
2022-08-20T06:57:02.591Z,75.20
2022-08-20T06:59:29.357Z,74.86
2022-08-20T07:01:56.650Z,74.76
2022-08-20T07:04:26.012Z,74.94
2022-08-20T07:06:54.269Z,74.76
2022-08-20T07:09:21.822Z,74.78
2022-08-20T07:11:49.451Z,74.71
2022-08-20T07:14:18.469Z,74.81
2022-08-20T07:16:47.346Z,74.86
2022-08-20T07:19:15.177Z,74.87
2022-08-20T07:21:42.279Z,74.62
2022-08-20T07:24:10.135Z,74.65
2022-08-20T07:26:36.952Z,74.74
2022-08-20T07:29:04.186Z,74.59
2022-08-20T07:31:49.839Z,74.53
2022-08-20T07:34:16.891Z,74.43
2022-08-20T07:36:48.494Z,74.25
2022-08-20T07:39:15.338Z,74.04
2022-08-20T07:41:43.544Z,73.92
2022-08-20T07:44:17.523Z,73.82
2022-08-20T07:46:45.335Z,73.90
2022-08-20T07:49:12.114Z,74.01
2022-08-20T07:51:40.588Z,74.00
2022-08-20T07:54:07.409Z,74.14
2022-08-20T07:56:34.637Z,74.05
2022-08-20T07:59:03.340Z,74.28
2022-08-20T08:01:32.229Z,73.99
2022-08-20T08:04:00.199Z,74.15
2022-08-20T08:06:30.142Z,74.27
2022-08-20T08:09:09.883Z,74.37
2022-08-20T08:11:39.867Z,74.14
2022-08-20T08:14:09.905Z,74.42
2022-08-20T08:16:37.648Z,74.45
2022-08-20T08:19:08.940Z,73.33
2022-08-20T08:21:36.727Z,72.21
2022-08-20T08:24:03.891Z,71.88
2022-08-20T08:26:30.776Z,71.22
2022-08-20T08:28:58.458Z,71.35
2022-08-20T08:31:25.992Z,69.86
2022-08-20T08:33:53.100Z,68.08
2022-08-20T08:36:19.928Z,67.43
2022-08-20T08:38:46.914Z,66.95
2022-08-20T08:41:20.926Z,65.34
2022-08-20T08:43:50.612Z,63.48
2022-08-20T08:46:22.739Z,61.13
2022-08-20T08:48:53.620Z,59.24
2022-08-20T08:51:59.031Z,58.04
2022-08-20T08:54:29.829Z,56.47
2022-08-20T08:56:57.479Z,55.86
2022-08-20T08:59:52.387Z,54.94
2022-08-20T09:02:23.062Z,54.03
2022-08-20T09:04:51.724Z,53.48
2022-08-20T09:07:18.516Z,53.13
2022-08-20T09:09:46.907Z,53.64
2022-08-20T09:12:19.117Z,52.85
2022-08-20T09:14:48.171Z,52.80
2022-08-20T09:17:16.309Z,52.53
2022-08-20T09:19:43.141Z,53.24
2022-08-20T09:22:12.042Z,51.80
2022-08-20T09:24:39.336Z,50.68
2022-08-20T09:27:09.275Z,51.50
2022-08-20T09:29:36.424Z,52.54
2022-08-20T09:32:09.181Z,51.76
2022-08-20T09:34:38.160Z,52.34
2022-08-20T09:37:05.459Z,52.53
2022-08-20T09:39:32.482Z,53.29
2022-08-20T09:42:17.113Z,53.15
2022-08-20T09:44:44.711Z,53.04
2022-08-20T09:47:11.855Z,53.28
2022-08-20T09:49:39.469Z,53.66
2022-08-20T09:52:10.935Z,53.23
2022-08-20T09:54:39.999Z,53.86
2022-08-20T09:57:15.004Z,54.32
2022-08-20T09:59:42.038Z,54.51
2022-08-20T10:02:09.105Z,54.67
2022-08-20T10:04:35.899Z,55.12
2022-08-20T10:07:07.857Z,55.56
2022-08-20T10:09:36.227Z,55.91
2022-08-20T10:12:03.992Z,55.54
2022-08-20T10:14:31.366Z,55.62
2022-08-20T10:17:00.749Z,55.06
2022-08-20T10:19:28.425Z,55.15
2022-08-20T10:21:55.344Z,53.49
2022-08-20T10:24:22.944Z,51.99
2022-08-20T10:26:50.355Z,51.77
2022-08-20T10:29:17.404Z,52.32
2022-08-20T10:31:44.261Z,52.93
2022-08-20T10:34:11.049Z,52.97
2022-08-20T10:36:38.260Z,53.58
2022-08-20T10:39:05.040Z,53.97
2022-08-20T10:41:31.874Z,54.04
2022-08-20T10:43:58.648Z,54.21
2022-08-20T10:46:25.375Z,54.21
2022-08-20T10:48:52.479Z,53.17
2022-08-20T10:51:19.261Z,53.33
2022-08-20T10:53:47.584Z,52.18
2022-08-20T10:56:15.776Z,51.23
2022-08-20T10:58:42.746Z,51.00
2022-08-20T11:01:11.422Z,50.96
2022-08-20T11:03:38.338Z,51.33
2022-08-20T11:06:06.606Z,52.07
2022-08-20T11:08:36.137Z,51.88
2022-08-20T11:11:04.438Z,51.26
2022-08-20T11:13:31.415Z,51.24
2022-08-20T11:15:58.201Z,51.89
2022-08-20T11:18:24.992Z,51.81
2022-08-20T11:20:52.390Z,52.02
2022-08-20T11:23:19.348Z,51.42
2022-08-20T11:25:46.335Z,51.61
2022-08-20T11:28:13.285Z,50.97
2022-08-20T11:30:40.118Z,50.58
2022-08-20T11:33:07.467Z,50.47
2022-08-20T11:35:49.228Z,50.26
2022-08-20T11:38:17.142Z,50.64
2022-08-20T11:40:43.916Z,50.21
2022-08-20T11:43:15.527Z,49.97
2022-08-20T11:45:47.721Z,49.72
2022-08-20T11:48:14.863Z,49.75
2022-08-20T11:50:41.743Z,49.47
2022-08-20T11:53:08.626Z,49.79
2022-08-20T11:55:36.800Z,49.58
2022-08-20T11:58:03.933Z,49.94
2022-08-20T12:00:33.972Z,49.40
2022-08-20T12:03:05.193Z,49.44
2022-08-20T12:05:32.747Z,49.39
2022-08-20T12:08:02.499Z,48.71
2022-08-20T12:10:30.689Z,48.52
2022-08-20T12:12:57.924Z,48.25
2022-08-20T12:15:26.843Z,47.88
2022-08-20T12:17:54.912Z,47.94
2022-08-20T12:20:23.346Z,47.86
2022-08-20T12:22:50.756Z,47.72
2022-08-20T12:25:17.896Z,47.30
2022-08-20T12:27:46.323Z,46.84
2022-08-20T12:30:18.187Z,47.08
2022-08-20T12:32:45.013Z,46.54
2022-08-20T12:35:13.067Z,45.58
2022-08-20T12:37:40.799Z,45.13
2022-08-20T12:40:11.663Z,45.07
2022-08-20T12:42:38.793Z,45.13
2022-08-20T12:45:06.669Z,45.06
2022-08-20T12:47:36.012Z,44.45
2022-08-20T12:50:25.202Z,44.85
2022-08-20T12:52:54.376Z,44.22
2022-08-20T12:55:21.371Z,44.10
2022-08-20T12:57:57.376Z,44.25
2022-08-20T13:00:27.858Z,44.34
2022-08-20T13:02:58.815Z,44.47
2022-08-20T13:05:26.840Z,44.52
2022-08-20T13:07:54.619Z,44.61
2022-08-20T13:10:25.467Z,44.51
2022-08-20T13:12:52.600Z,44.69
2022-08-20T13:15:23.180Z,44.80
2022-08-20T13:17:59.788Z,44.85
2022-08-20T13:20:31.749Z,44.88
2022-08-20T13:23:03.120Z,44.62
2022-08-20T13:25:30.965Z,44.40
2022-08-20T13:28:00.368Z,44.38
2022-08-20T13:30:27.608Z,44.31
2022-08-20T13:32:54.766Z,44.21
2022-08-20T13:35:22.048Z,44.28
2022-08-20T13:37:51.392Z,43.99
2022-08-20T13:40:19.066Z,43.29
2022-08-20T13:42:46.783Z,43.32
2022-08-20T13:45:14.137Z,43.54
2022-08-20T13:47:42.611Z,43.88
2022-08-20T13:50:15.912Z,43.60
2022-08-20T13:52:43.307Z,43.62
2022-08-20T13:55:13.138Z,43.28
2022-08-20T13:57:41.042Z,43.05
2022-08-20T14:00:12.792Z,42.58
2022-08-20T14:02:42.950Z,42.66
2022-08-20T14:05:10.993Z,43.18
2022-08-20T14:07:39.348Z,43.44
2022-08-20T14:10:11.242Z,43.68
2022-08-20T14:12:38.084Z,44.05
2022-08-20T14:15:05.971Z,44.18
2022-08-20T14:17:36.255Z,44.32
2022-08-20T14:20:13.737Z,44.38
2022-08-20T14:22:42.196Z,44.59
2022-08-20T14:25:13.010Z,44.83
2022-08-20T14:27:40.186Z,45.02
2022-08-20T14:30:11.066Z,45.05
2022-08-20T14:32:37.971Z,45.11
2022-08-20T14:35:05.552Z,44.77
2022-08-20T14:37:39.329Z,44.71
2022-08-20T14:40:09.467Z,44.53
2022-08-20T14:42:36.904Z,44.23
2022-08-20T14:45:06.527Z,44.14
2022-08-20T14:47:45.601Z,43.75
2022-08-20T14:50:18.959Z,43.47
2022-08-20T14:52:45.762Z,43.38
2022-08-20T14:55:17.464Z,43.11
2022-08-20T14:57:45.456Z,43.19
2022-08-20T15:00:18.887Z,42.91
2022-08-20T15:02:47.174Z,42.17
2022-08-20T15:05:15.071Z,41.99
2022-08-20T15:07:44.533Z,41.72
2022-08-20T15:10:35.981Z,41.68
2022-08-20T15:13:02.880Z,41.79
2022-08-20T15:15:29.977Z,42.00
2022-08-20T15:18:00.330Z,42.06
2022-08-20T15:20:31.173Z,41.83
2022-08-20T15:22:58.902Z,41.82
2022-08-20T15:25:36.075Z,41.59
2022-08-20T15:28:06.337Z,41.09
2022-08-20T15:30:33.513Z,41.11
2022-08-20T15:33:00.646Z,41.29
2022-08-20T15:35:28.644Z,41.49
2022-08-20T15:37:57.579Z,41.65
2022-08-20T15:40:28.555Z,41.43
2022-08-20T15:43:00.355Z,42.07
2022-08-20T15:45:27.121Z,42.67
2022-08-20T15:48:16.767Z,43.45
2022-08-20T15:51:09.856Z,44.34
2022-08-20T15:53:58.930Z,45.15
2022-08-20T15:57:01.484Z,45.83
2022-08-20T15:59:34.341Z,45.49
2022-08-20T16:02:28.924Z,45.08
2022-08-20T16:05:52.880Z,44.84
2022-08-20T16:08:58.344Z,44.46
2022-08-20T16:11:39.489Z,44.37
2022-08-20T16:14:29.373Z,44.48
2022-08-20T16:17:05.767Z,44.72
2022-08-20T16:19:56.767Z,45.06
2022-08-20T16:22:24.981Z,45.40
2022-08-20T16:24:51.765Z,46.50
2022-08-20T16:27:24.688Z,47.95
2022-08-20T16:30:03.046Z,48.54
2022-08-20T16:32:48.942Z,49.10
2022-08-20T16:35:34.380Z,49.59
2022-08-20T16:38:14.244Z,50.03
2022-08-20T16:41:01.720Z,50.67
2022-08-20T16:43:40.791Z,51.38
2022-08-20T16:46:33.177Z,52.13
2022-08-20T16:49:11.618Z,52.30
2022-08-20T16:51:53.596Z,52.34
2022-08-20T16:54:28.249Z,52.84
2022-08-20T16:57:06.471Z,52.64
2022-08-20T16:59:34.787Z,52.76
2022-08-20T17:02:10.056Z,53.58
2022-08-20T17:04:50.412Z,53.91
2022-08-20T17:07:46.135Z,54.82
2022-08-20T17:10:30.234Z,54.69
2022-08-20T17:13:14.150Z,54.76
2022-08-20T17:15:43.915Z,54.88
2022-08-20T17:18:38.425Z,55.69
2022-08-20T17:21:14.551Z,55.73
2022-08-20T17:23:56.389Z,56.03
2022-08-20T17:26:43.236Z,55.91
2022-08-20T17:29:23.687Z,55.46
2022-08-20T17:31:57.593Z,55.55
2022-08-20T17:34:33.401Z,55.58
2022-08-20T17:37:10.471Z,55.18
2022-08-20T17:39:49.822Z,55.23
2022-08-20T17:42:22.367Z,55.70
2022-08-20T17:44:56.029Z,56.65
2022-08-20T17:47:39.046Z,58.36
2022-08-20T17:50:19.913Z,59.08
2022-08-20T17:52:57.862Z,59.56
2022-08-20T17:55:26.496Z,60.12
2022-08-20T17:57:58.035Z,60.52
2022-08-20T18:00:28.441Z,61.04
2022-08-20T18:03:06.358Z,61.07
2022-08-20T18:05:35.798Z,61.55
2022-08-20T18:08:03.040Z,61.50
2022-08-20T18:10:34.351Z,61.75
2022-08-20T18:13:27.755Z,61.91
2022-08-20T18:15:58.049Z,61.77
2022-08-20T18:18:34.849Z,61.62
2022-08-20T18:21:20.289Z,61.35
2022-08-20T18:24:01.411Z,61.26
2022-08-20T18:26:45.096Z,61.09
2022-08-20T18:29:16.603Z,60.96
2022-08-20T18:31:51.873Z,61.27
2022-08-20T18:34:35.596Z,61.33
2022-08-20T18:37:21.415Z,61.02
2022-08-20T18:39:50.092Z,61.37
2022-08-20T18:42:34.257Z,61.22
2022-08-20T18:45:02.895Z,61.31
2022-08-20T18:47:41.814Z,61.71
2022-08-20T18:50:42.555Z,61.68
2022-08-20T18:53:19.943Z,61.87
2022-08-20T18:56:00.218Z,61.94
2022-08-20T18:59:09.475Z,61.83
2022-08-20T19:01:38.016Z,62.05
2022-08-20T19:04:20.509Z,62.75
2022-08-20T19:06:57.745Z,63.36
2022-08-20T19:10:12.935Z,64.17
2022-08-20T19:13:16.089Z,64.06
2022-08-20T19:15:50.899Z,64.16
2022-08-20T19:18:37.982Z,64.59
2022-08-20T19:21:05.997Z,64.83
2022-08-20T19:23:49.307Z,65.02
2022-08-20T19:26:25.298Z,64.91
2022-08-20T19:29:15.251Z,65.04
2022-08-20T19:31:42.539Z,64.87
2022-08-20T19:34:20.259Z,65.01
2022-08-20T19:37:35.571Z,65.27
2022-08-20T19:39:58.349Z,65.02
2022-08-20T19:42:33.388Z,65.19
2022-08-20T19:45:07.729Z,65.25
2022-08-20T19:47:40.932Z,65.00
2022-08-20T19:50:39.061Z,65.27
2022-08-20T19:53:30.778Z,65.34
2022-08-20T19:56:04.042Z,65.22
2022-08-20T19:58:32.690Z,65.46
2022-08-20T20:01:03.100Z,65.58
2022-08-20T20:03:33.913Z,65.81
2022-08-20T20:06:16.615Z,65.91
2022-08-20T20:09:04.164Z,65.88
2022-08-20T20:11:37.516Z,65.80
2022-08-20T20:14:07.874Z,65.95
2022-08-20T20:16:36.426Z,66.07
2022-08-20T20:19:25.233Z,66.47
2022-08-20T20:22:05.913Z,66.34
2022-08-20T20:24:45.109Z,66.18
2022-08-20T20:27:24.403Z,66.33
2022-08-20T20:29:59.181Z,66.46
2022-08-20T20:32:26.721Z,66.38
2022-08-20T20:34:58.335Z,66.57
2022-08-20T20:37:49.813Z,66.55
2022-08-20T20:40:20.621Z,66.63
2022-08-20T20:42:59.160Z,66.95
2022-08-20T20:45:32.784Z,66.70
2022-08-20T20:47:59.719Z,66.74
2022-08-20T20:50:34.666Z,66.89
2022-08-20T20:53:01.860Z,67.02
2022-08-20T20:55:34.623Z,67.20
2022-08-20T20:58:02.724Z,67.13
2022-08-20T21:00:34.142Z,66.86
2022-08-20T21:03:02.616Z,66.93
2022-08-20T21:05:30.865Z,66.91
2022-08-20T21:08:03.909Z,66.98
2022-08-20T21:10:33.162Z,66.93
2022-08-20T21:13:00.998Z,66.84
2022-08-20T21:15:28.194Z,66.88
2022-08-20T21:17:59.384Z,67.08
2022-08-20T21:20:26.649Z,67.14
2022-08-20T21:22:53.860Z,67.30
2022-08-20T21:25:21.128Z,67.51
2022-08-20T21:27:50.476Z,67.67
2022-08-20T21:30:19.047Z,67.49
2022-08-20T21:32:46.070Z,67.60
2022-08-20T21:35:13.153Z,67.63
2022-08-20T21:37:39.896Z,67.63
2022-08-20T21:40:09.489Z,67.97
2022-08-20T21:42:39.987Z,68.17
2022-08-20T21:45:10.031Z,68.37
2022-08-20T21:47:36.768Z,68.44
2022-08-20T21:50:05.009Z,68.59
2022-08-20T21:52:31.963Z,68.65
2022-08-20T21:55:02.299Z,68.58
2022-08-20T21:57:33.172Z,68.63
2022-08-20T22:00:03.474Z,68.59
2022-08-20T22:02:30.521Z,68.65
2022-08-20T22:04:57.304Z,68.61
2022-08-20T22:07:24.205Z,68.50
2022-08-20T22:09:51.111Z,68.69
2022-08-20T22:12:20.630Z,68.79
2022-08-20T22:14:48.080Z,68.73
2022-08-20T22:17:15.562Z,68.47
2022-08-20T22:19:42.441Z,68.47
2022-08-20T22:22:11.000Z,68.46
2022-08-20T22:24:38.283Z,68.45
2022-08-20T22:27:06.810Z,68.33
2022-08-20T22:29:34.741Z,68.42
2022-08-20T22:32:02.129Z,68.16
2022-08-20T22:34:31.394Z,68.05
2022-08-20T22:36:59.645Z,67.75
2022-08-20T22:39:27.269Z,67.81
2022-08-20T22:41:54.259Z,67.56
2022-08-20T22:44:21.220Z,67.22
2022-08-20T22:46:52.615Z,67.06
2022-08-20T22:49:27.047Z,66.84
2022-08-20T22:51:54.262Z,66.71
2022-08-20T22:54:24.647Z,66.44
2022-08-20T22:56:53.604Z,66.09
2022-08-20T22:59:21.496Z,65.80
2022-08-20T23:01:49.984Z,65.44
2022-08-20T23:04:32.730Z,65.39
2022-08-20T23:07:00.960Z,65.28
2022-08-20T23:09:28.375Z,65.36
2022-08-20T23:11:59.630Z,65.30
2022-08-20T23:14:27.159Z,65.18
2022-08-20T23:17:03.018Z,65.10
2022-08-20T23:19:30.281Z,64.96
2022-08-20T23:21:57.151Z,64.94
2022-08-20T23:24:23.973Z,65.12
2022-08-20T23:26:52.774Z,65.35
2022-08-20T23:29:22.547Z,65.49
2022-08-20T23:31:54.336Z,65.67
2022-08-20T23:34:22.485Z,65.70
2022-08-20T23:36:50.586Z,65.99
2022-08-20T23:39:17.595Z,66.03
2022-08-20T23:41:47.559Z,65.78
2022-08-20T23:44:26.243Z,66.21
2022-08-20T23:47:00.632Z,66.24
2022-08-20T23:49:28.090Z,66.50
2022-08-20T23:51:57.793Z,66.39
2022-08-20T23:54:24.586Z,66.60
2022-08-20T23:56:51.433Z,66.87
2022-08-20T23:59:24.214Z,66.94
